createdAt,value
2023-05-22T00:00:25.639Z,94797.00
2023-05-22T00:01:25.611Z,94799.00
2023-05-22T00:02:25.616Z,94801.00
2023-05-22T00:03:25.672Z,94799.00
2023-05-22T00:04:25.595Z,94797.00
2023-05-22T00:05:25.609Z,94803.00
2023-05-22T00:06:25.601Z,94801.00
2023-05-22T00:07:25.566Z,94799.00
2023-05-22T00:08:27.985Z,94797.00
2023-05-22T00:09:25.571Z,94795.00
2023-05-22T00:10:25.542Z,94793.00
2023-05-22T00:11:25.585Z,94790.00
2023-05-22T00:12:25.530Z,94793.00
2023-05-22T00:13:25.550Z,94786.00
2023-05-22T00:14:25.515Z,94790.00
2023-05-22T00:15:25.543Z,94788.00
2023-05-22T00:16:25.584Z,94790.00
2023-05-22T00:17:25.607Z,94788.00
2023-05-22T00:18:25.484Z,94786.00
2023-05-22T00:19:25.560Z,94786.00
2023-05-22T00:20:25.970Z,94784.00
2023-05-22T00:21:25.488Z,94788.00
2023-05-22T00:22:25.473Z,94786.00
2023-05-22T00:23:25.470Z,94784.00
2023-05-22T00:24:25.416Z,94784.00
2023-05-22T00:25:25.471Z,94786.00
2023-05-22T00:26:25.522Z,94786.00
2023-05-22T00:27:25.434Z,94786.00
2023-05-22T00:28:25.401Z,94788.00
2023-05-22T00:29:25.416Z,94788.00
2023-05-22T00:30:25.457Z,94788.00
2023-05-22T00:31:25.451Z,94793.00
2023-05-22T00:32:25.509Z,94793.00
2023-05-22T00:36:01.651Z,94786.00
2023-05-22T00:38:20.918Z,94791.00
2023-05-22T00:39:20.827Z,94791.00
2023-05-22T00:40:21.494Z,94791.00
2023-05-22T00:42:40.414Z,94791.00
2023-05-22T00:47:11.859Z,94797.00
2023-05-22T00:54:13.876Z,94797.00
2023-05-22T00:59:21.477Z,94801.00
2023-05-22T01:03:01.490Z,94799.00
2023-05-22T01:04:01.283Z,94799.00
2023-05-22T01:05:01.464Z,94797.00
2023-05-22T01:06:01.276Z,94795.00
2023-05-22T01:07:01.446Z,94801.00
2023-05-22T01:08:01.139Z,94801.00
2023-05-22T01:12:12.070Z,94801.00
2023-05-22T01:13:12.562Z,94803.00
2023-05-22T01:14:12.518Z,94805.00
2023-05-22T01:17:48.573Z,94809.00
2023-05-22T01:18:36.345Z,94807.00
2023-05-22T01:19:35.900Z,94809.00
2023-05-22T01:20:35.850Z,94809.00
2023-05-22T01:21:36.766Z,94809.00
2023-05-22T01:22:35.820Z,94809.00
2023-05-22T01:23:35.761Z,94807.00
2023-05-22T01:24:35.877Z,94807.00
2023-05-22T01:29:54.222Z,94809.00
2023-05-22T01:30:39.750Z,94811.00
2023-05-22T01:31:39.481Z,94807.00
2023-05-22T01:32:39.550Z,94809.00
2023-05-22T01:33:39.503Z,94811.00
2023-05-22T01:34:39.383Z,94813.00
2023-05-22T01:35:39.418Z,94815.00
2023-05-22T01:36:39.370Z,94817.00
2023-05-22T01:37:39.418Z,94819.00
2023-05-22T01:38:39.339Z,94817.00
2023-05-22T01:39:39.361Z,94821.00
2023-05-22T01:40:40.467Z,94821.00
2023-05-22T01:43:25.687Z,94825.00
2023-05-22T01:46:14.263Z,94823.00
2023-05-22T01:47:13.806Z,94825.00
2023-05-22T01:48:13.912Z,94827.00
2023-05-22T01:49:13.950Z,94827.00
2023-05-22T01:50:13.853Z,94829.00
2023-05-22T01:51:14.845Z,94831.00
2023-05-22T01:52:13.837Z,94829.00
2023-05-22T01:54:33.350Z,94831.00
2023-05-22T01:55:33.225Z,94831.00
2023-05-22T01:56:33.153Z,94833.00
2023-05-22T01:57:33.140Z,94831.00
2023-05-22T02:08:00.335Z,94833.00
2023-05-22T02:15:38.565Z,94835.00
2023-05-22T02:16:38.250Z,94837.00
2023-05-22T02:17:38.279Z,94837.00
2023-05-22T02:20:48.149Z,94833.00
2023-05-22T02:21:48.141Z,94833.00
2023-05-22T02:22:48.165Z,94831.00
2023-05-22T02:23:48.153Z,94829.00
2023-05-22T02:24:48.164Z,94831.00
2023-05-22T02:30:00.209Z,94829.00
2023-05-22T02:30:48.136Z,94829.00
2023-05-22T02:33:37.745Z,94835.00
2023-05-22T02:34:36.683Z,94831.00
2023-05-22T02:35:36.646Z,94833.00
2023-05-22T02:36:36.655Z,94829.00
2023-05-22T02:37:36.672Z,94831.00
2023-05-22T02:38:36.925Z,94835.00
2023-05-22T02:39:36.776Z,94837.00
2023-05-22T02:40:36.756Z,94833.00
2023-05-22T02:41:36.608Z,94833.00
2023-05-22T02:42:36.592Z,94835.00
2023-05-22T02:43:36.594Z,94835.00
2023-05-22T02:44:36.921Z,94839.00
2023-05-22T02:46:58.752Z,94837.00
2023-05-22T02:47:58.675Z,94835.00
2023-05-22T02:49:01.499Z,94835.00
2023-05-22T02:53:42.293Z,94839.00
2023-05-22T02:54:30.020Z,94839.00
2023-05-22T02:55:30.045Z,94839.00
2023-05-22T02:56:30.025Z,94839.00
2023-05-22T02:57:29.970Z,94843.00
2023-05-22T03:01:44.869Z,94845.00
2023-05-22T03:02:41.078Z,94845.00
2023-05-22T03:03:41.068Z,94848.00
2023-05-22T03:04:40.929Z,94846.00
2023-05-22T03:05:41.057Z,94845.00
2023-05-22T03:06:41.308Z,94845.00
2023-05-22T03:07:41.015Z,94843.00
2023-05-22T03:08:41.696Z,94845.00
2023-05-22T03:09:40.928Z,94841.00
2023-05-22T03:10:41.070Z,94845.00
2023-05-22T03:11:40.916Z,94846.00
2023-05-22T03:12:40.945Z,94845.00
2023-05-22T03:13:40.902Z,94845.00
2023-05-22T03:14:40.853Z,94843.00
2023-05-22T03:15:40.865Z,94845.00
2023-05-22T03:16:40.874Z,94848.00
2023-05-22T03:17:40.817Z,94848.00
2023-05-22T03:18:40.829Z,94843.00
2023-05-22T03:19:41.881Z,94845.00
2023-05-22T03:20:41.004Z,94843.00
2023-05-22T03:21:40.798Z,94839.00
2023-05-22T03:22:40.815Z,94843.00
2023-05-22T03:23:40.959Z,94843.00
2023-05-22T03:24:40.765Z,94845.00
2023-05-22T03:25:40.769Z,94841.00
2023-05-22T03:26:40.799Z,94845.00
2023-05-22T03:27:40.768Z,94843.00
2023-05-22T03:28:40.829Z,94843.00
2023-05-22T03:29:40.794Z,94841.00
2023-05-22T03:30:41.062Z,94845.00
2023-05-22T03:31:40.809Z,94846.00
2023-05-22T03:32:40.964Z,94841.00
2023-05-22T03:33:40.746Z,94841.00
2023-05-22T03:34:40.729Z,94843.00
2023-05-22T03:35:40.741Z,94841.00
2023-05-22T03:36:40.751Z,94843.00
2023-05-22T03:37:40.796Z,94839.00
2023-05-22T03:38:40.858Z,94839.00
2023-05-22T03:39:40.916Z,94837.00
2023-05-22T03:40:41.260Z,94841.00
2023-05-22T03:41:40.977Z,94837.00
2023-05-22T03:42:41.016Z,94837.00
2023-05-22T03:45:35.131Z,94839.00
2023-05-22T03:46:34.581Z,94839.00
2023-05-22T03:47:46.532Z,94843.00
2023-05-22T03:49:54.716Z,94841.00
2023-05-22T03:50:54.538Z,94841.00
2023-05-22T03:51:54.472Z,94839.00
2023-05-22T03:52:54.522Z,94837.00
2023-05-22T03:53:54.524Z,94839.00
2023-05-22T03:54:54.504Z,94845.00
2023-05-22T04:00:13.514Z,94846.00
2023-05-22T04:01:00.769Z,94850.00
2023-05-22T04:02:00.309Z,94850.00
2023-05-22T04:03:01.117Z,94850.00
2023-05-22T04:06:39.944Z,94852.00
2023-05-22T04:07:39.939Z,94850.00
2023-05-22T04:08:39.936Z,94850.00
2023-05-22T04:11:23.913Z,94850.00
2023-05-22T04:12:23.661Z,94846.00
2023-05-22T04:13:23.483Z,94848.00
2023-05-22T04:14:23.394Z,94848.00
2023-05-22T04:15:23.412Z,94850.00
2023-05-22T04:16:24.082Z,94850.00
2023-05-22T04:17:23.479Z,94852.00
2023-05-22T04:18:23.580Z,94856.00
2023-05-22T04:19:23.433Z,94858.00
2023-05-22T04:20:23.415Z,94856.00
2023-05-22T04:21:23.347Z,94854.00
2023-05-22T04:22:23.371Z,94854.00
2023-05-22T04:23:23.348Z,94858.00
2023-05-22T04:24:23.312Z,94856.00
2023-05-22T04:25:23.300Z,94858.00
2023-05-22T04:26:23.365Z,94858.00
2023-05-22T04:27:23.306Z,94858.00
2023-05-22T04:28:23.397Z,94860.00
2023-05-22T04:29:23.292Z,94860.00
2023-05-22T04:30:23.289Z,94858.00
2023-05-22T04:31:23.385Z,94868.00
2023-05-22T04:32:23.327Z,94870.00
2023-05-22T04:33:23.329Z,94872.00
2023-05-22T04:34:23.365Z,94874.00
2023-05-22T04:35:23.389Z,94870.00
2023-05-22T04:36:23.465Z,94872.00
2023-05-22T04:37:23.482Z,94872.00
2023-05-22T04:38:23.487Z,94874.00
2023-05-22T04:39:23.602Z,94872.00
2023-05-22T04:40:23.606Z,94878.00
2023-05-22T04:41:23.827Z,94878.00
2023-05-22T04:42:23.689Z,94878.00
2023-05-22T04:43:23.731Z,94878.00
2023-05-22T04:44:23.850Z,94874.00
2023-05-22T04:45:23.797Z,94872.00
2023-05-22T04:46:23.899Z,94874.00
2023-05-22T04:47:23.943Z,94876.00
2023-05-22T04:48:23.969Z,94878.00
2023-05-22T04:49:24.051Z,94878.00
2023-05-22T04:56:37.661Z,94880.00
2023-05-22T05:00:39.677Z,94880.00
2023-05-22T05:01:39.476Z,94880.00
2023-05-22T05:02:39.514Z,94884.00
2023-05-22T05:03:39.560Z,94886.00
2023-05-22T05:04:39.404Z,94882.00
2023-05-22T05:05:39.954Z,94882.00
2023-05-22T05:06:39.325Z,94888.00
2023-05-22T05:07:39.503Z,94884.00
2023-05-22T05:08:39.310Z,94884.00
2023-05-22T05:09:39.271Z,94886.00
2023-05-22T05:10:39.467Z,94882.00
2023-05-22T05:11:39.282Z,94888.00
2023-05-22T05:12:40.092Z,94884.00
2023-05-22T05:13:39.271Z,94884.00
2023-05-22T05:14:39.448Z,94884.00
2023-05-22T05:15:39.296Z,94886.00
2023-05-22T05:16:39.359Z,94880.00
2023-05-22T05:21:45.672Z,94886.00
2023-05-22T05:22:45.589Z,94884.00
2023-05-22T05:25:05.418Z,94882.00
2023-05-22T05:26:05.343Z,94886.00
2023-05-22T05:28:25.300Z,94888.00
2023-05-22T05:33:04.174Z,94888.00
2023-05-22T05:33:56.130Z,94886.00
2023-05-22T05:34:56.197Z,94886.00
2023-05-22T05:37:16.532Z,94886.00
2023-05-22T05:38:15.912Z,94888.00
2023-05-22T05:39:15.958Z,94886.00
2023-05-22T05:41:35.431Z,94886.00
2023-05-22T05:42:35.357Z,94884.00
2023-05-22T05:43:35.435Z,94878.00
2023-05-22T05:47:00.749Z,94876.00
2023-05-22T05:50:59.201Z,94880.00
2023-05-22T05:54:10.800Z,94878.00
2023-05-22T05:54:58.710Z,94884.00
2023-05-22T05:55:58.843Z,94880.00
2023-05-22T05:56:59.362Z,94882.00
2023-05-22T05:58:01.520Z,94882.00
2023-05-22T05:58:58.767Z,94886.00
2023-05-22T05:59:58.819Z,94886.00
2023-05-22T06:00:58.633Z,94884.00
2023-05-22T06:01:58.619Z,94890.00
2023-05-22T06:02:58.650Z,94890.00
2023-05-22T06:03:58.648Z,94892.00
2023-05-22T06:04:58.593Z,94890.00
2023-05-22T06:05:59.105Z,94884.00
2023-05-22T06:06:58.599Z,94886.00
2023-05-22T06:07:58.671Z,94886.00
2023-05-22T06:08:58.607Z,94890.00
2023-05-22T06:09:58.697Z,94888.00
2023-05-22T06:10:58.530Z,94888.00
2023-05-22T06:11:58.542Z,94886.00
2023-05-22T06:13:01.395Z,94892.00
2023-05-22T06:13:58.540Z,94890.00
2023-05-22T06:14:59.388Z,94890.00
2023-05-22T06:16:01.325Z,94890.00
2023-05-22T06:16:58.590Z,94888.00
2023-05-22T06:17:58.530Z,94882.00
2023-05-22T06:18:58.499Z,94884.00
2023-05-22T06:19:58.485Z,94882.00
2023-05-22T06:20:58.473Z,94884.00
2023-05-22T06:21:58.447Z,94886.00
2023-05-22T06:22:58.507Z,94888.00
2023-05-22T06:23:58.503Z,94886.00
2023-05-22T06:24:58.422Z,94884.00
2023-05-22T06:25:58.465Z,94888.00
2023-05-22T06:26:58.444Z,94886.00
2023-05-22T06:27:58.434Z,94884.00
2023-05-22T06:28:58.433Z,94882.00
2023-05-22T06:30:00.308Z,94882.00
2023-05-22T06:30:58.414Z,94884.00
2023-05-22T06:31:58.389Z,94886.00
2023-05-22T06:32:58.533Z,94882.00
2023-05-22T06:33:58.434Z,94882.00
2023-05-22T06:34:58.417Z,94882.00
2023-05-22T06:35:58.480Z,94884.00
2023-05-22T06:36:58.359Z,94882.00
2023-05-22T06:37:59.798Z,94882.00
2023-05-22T06:38:58.403Z,94880.00
2023-05-22T06:39:58.384Z,94882.00
2023-05-22T06:40:58.419Z,94878.00
2023-05-22T06:41:58.476Z,94876.00
2023-05-22T06:42:58.409Z,94880.00
2023-05-22T06:43:58.381Z,94880.00
2023-05-22T06:44:58.464Z,94876.00
2023-05-22T06:45:58.603Z,94878.00
2023-05-22T06:46:58.580Z,94872.00
2023-05-22T06:47:58.621Z,94868.00
2023-05-22T06:48:58.605Z,94870.00
2023-05-22T06:49:58.593Z,94870.00
2023-05-22T06:50:58.689Z,94870.00
2023-05-22T06:51:58.715Z,94872.00
2023-05-22T06:52:58.794Z,94870.00
2023-05-22T06:53:58.760Z,94870.00
2023-05-22T06:54:58.821Z,94868.00
2023-05-22T06:55:58.949Z,94860.00
2023-05-22T06:56:58.864Z,94858.00
2023-05-22T06:57:58.888Z,94860.00
2023-05-22T06:58:58.913Z,94860.00
2023-05-22T06:59:58.854Z,94854.00
2023-05-22T07:00:58.959Z,94858.00
2023-05-22T07:01:59.018Z,94854.00
2023-05-22T07:02:59.206Z,94852.00
2023-05-22T07:03:59.082Z,94850.00
2023-05-22T07:04:59.156Z,94850.00
2023-05-22T07:05:59.275Z,94852.00
2023-05-22T07:08:19.821Z,94846.00
2023-05-22T07:09:18.879Z,94850.00
2023-05-22T07:10:19.024Z,94850.00
2023-05-22T07:12:39.574Z,94846.00
2023-05-22T07:13:38.632Z,94845.00
2023-05-22T07:14:38.992Z,94843.00
2023-05-22T07:15:39.210Z,94846.00
2023-05-22T07:19:56.440Z,94843.00
2023-05-22T07:20:48.179Z,94843.00
2023-05-22T07:21:48.180Z,94843.00
2023-05-22T07:22:48.134Z,94841.00
2023-05-22T07:23:48.211Z,94839.00
2023-05-22T07:35:07.316Z,94831.00
2023-05-22T07:36:04.239Z,94835.00
2023-05-22T07:38:23.707Z,94827.00
2023-05-22T07:39:23.300Z,94829.00
2023-05-22T07:40:31.882Z,94829.00
2023-05-22T07:41:24.355Z,94825.00
2023-05-22T07:42:23.448Z,94821.00
2023-05-22T07:43:23.225Z,94823.00
2023-05-22T07:44:23.236Z,94819.00
2023-05-22T07:46:43.451Z,94819.00
2023-05-22T07:47:42.738Z,94813.00
2023-05-22T07:48:42.710Z,94811.00
2023-05-22T07:49:42.269Z,94815.00
2023-05-22T07:50:42.597Z,94811.00
2023-05-22T07:51:42.112Z,94807.00
2023-05-22T07:52:44.789Z,94807.00
2023-05-22T07:53:42.210Z,94807.00
2023-05-22T07:54:43.497Z,94803.00
2023-05-22T07:55:42.508Z,94799.00
2023-05-22T07:56:42.238Z,94797.00
2023-05-22T07:57:42.148Z,94797.00
2023-05-22T07:58:42.210Z,94797.00
2023-05-22T07:59:42.058Z,94797.00
2023-05-22T08:00:45.338Z,94793.00
2023-05-22T08:01:42.093Z,94793.00
2023-05-22T08:02:42.211Z,94791.00
2023-05-22T08:03:42.355Z,94788.00
2023-05-22T08:04:42.189Z,94790.00
2023-05-22T08:05:42.011Z,94790.00
2023-05-22T08:06:46.281Z,94790.00
2023-05-22T08:07:42.928Z,94788.00
2023-05-22T08:08:42.859Z,94784.00
2023-05-22T08:09:42.013Z,94782.00
2023-05-22T08:10:58.233Z,94778.00
2023-05-22T08:11:43.871Z,94778.00
2023-05-22T08:12:42.041Z,94778.00
2023-05-22T08:13:48.419Z,94776.00
2023-05-22T08:14:43.054Z,94774.00
2023-05-22T08:15:41.955Z,94774.00
2023-05-22T08:16:42.011Z,94772.00
2023-05-22T08:17:45.406Z,94764.00
2023-05-22T08:18:42.901Z,94772.00
2023-05-22T08:19:42.041Z,94764.00
2023-05-22T08:20:42.179Z,94768.00
2023-05-22T08:21:41.911Z,94766.00
2023-05-22T08:22:49.329Z,94762.00
2023-05-22T08:23:42.928Z,94760.00
2023-05-22T08:24:41.894Z,94762.00
2023-05-22T08:25:41.908Z,94760.00
2023-05-22T08:26:41.878Z,94760.00
2023-05-22T08:27:41.927Z,94760.00
2023-05-22T08:45:19.626Z,94739.00
2023-05-22T08:46:20.995Z,94741.00
2023-05-22T08:47:17.609Z,94737.00
2023-05-22T08:48:18.943Z,94739.00
2023-05-22T08:49:18.244Z,94735.00
2023-05-22T08:50:18.383Z,94731.00
2023-05-22T08:51:17.313Z,94731.00
2023-05-22T08:52:17.216Z,94725.00
2023-05-22T08:53:20.358Z,94723.00
2023-05-22T08:54:17.210Z,94721.00
2023-05-22T09:09:35.669Z,94701.00
2023-05-22T09:10:34.080Z,94705.00
2023-05-22T09:11:33.262Z,94701.00
2023-05-22T09:12:34.052Z,94695.00
2023-05-22T09:13:32.219Z,94699.00
2023-05-22T09:14:32.066Z,94691.00
2023-05-22T09:15:32.366Z,94693.00
2023-05-22T09:16:32.191Z,94691.00
2023-05-22T09:17:38.660Z,94691.00
2023-05-22T09:18:33.069Z,94688.00
2023-05-22T09:19:34.673Z,94688.00
2023-05-22T09:20:34.659Z,94684.00
2023-05-22T09:21:34.659Z,94688.00
2023-05-22T09:22:33.030Z,94682.00
2023-05-22T09:23:32.213Z,94682.00
2023-05-22T09:24:33.662Z,94682.00
2023-05-22T09:25:32.014Z,94680.00
2023-05-22T09:26:35.520Z,94680.00
2023-05-22T09:27:33.746Z,94686.00
2023-05-22T09:32:29.159Z,94678.00
2023-05-22T09:33:29.937Z,94678.00
2023-05-22T09:34:28.745Z,94678.00
2023-05-22T09:35:28.650Z,94674.00
2023-05-22T09:36:28.683Z,94670.00
2023-05-22T09:37:28.736Z,94672.00
2023-05-22T09:38:28.664Z,94670.00
2023-05-22T09:39:28.745Z,94664.00
2023-05-22T09:40:37.466Z,94664.00
2023-05-22T09:41:34.013Z,94664.00
2023-05-22T09:42:29.496Z,94664.00
2023-05-22T09:43:31.002Z,94664.00
2023-05-22T09:44:31.345Z,94662.00
2023-05-22T09:45:31.647Z,94662.00
2023-05-22T09:46:30.883Z,94660.00
2023-05-22T09:47:43.725Z,94658.00
2023-05-22T09:48:29.259Z,94660.00
2023-05-22T09:49:30.436Z,94656.00
2023-05-22T09:50:30.572Z,94656.00
2023-05-22T09:51:30.778Z,94658.00
2023-05-22T09:52:30.286Z,94656.00
2023-05-22T09:53:29.073Z,94652.00
2023-05-22T09:54:31.120Z,94652.00
2023-05-22T09:55:31.140Z,94650.00
2023-05-22T09:56:38.441Z,94654.00
2023-05-22T09:57:34.737Z,94652.00
2023-05-22T09:58:29.984Z,94652.00
2023-05-22T09:59:40.869Z,94650.00
2023-05-22T10:00:30.831Z,94650.00
2023-05-22T10:01:32.382Z,94646.00
2023-05-22T10:02:37.833Z,94646.00
2023-05-22T10:03:30.987Z,94646.00
2023-05-22T10:04:30.610Z,94646.00
2023-05-22T10:05:29.420Z,94644.00
2023-05-22T10:06:32.110Z,94640.00
2023-05-22T10:07:33.949Z,94644.00
2023-05-22T10:08:32.016Z,94637.00
2023-05-22T10:09:31.813Z,94635.00
2023-05-22T10:10:30.442Z,94633.00
2023-05-22T10:11:29.211Z,94637.00
2023-05-22T10:12:30.943Z,94637.00
2023-05-22T10:18:28.933Z,94621.00
2023-05-22T10:30:17.638Z,94603.00
2023-05-22T10:31:16.305Z,94611.00
2023-05-22T10:32:18.833Z,94613.00
2023-05-22T10:33:16.452Z,94603.00
2023-05-22T10:34:19.312Z,94601.00
2023-05-22T10:35:16.560Z,94601.00
2023-05-22T10:36:20.646Z,94601.00
2023-05-22T10:37:20.200Z,94595.00
2023-05-22T10:38:18.729Z,94593.00
2023-05-22T10:39:16.608Z,94593.00
2023-05-22T10:40:18.326Z,94593.00
2023-05-22T10:41:17.806Z,94595.00
2023-05-22T10:42:16.933Z,94593.00
2023-05-22T10:43:18.190Z,94589.00
2023-05-22T10:44:17.489Z,94589.00
2023-05-22T10:45:18.041Z,94588.00
2023-05-22T10:46:17.498Z,94586.00
2023-05-22T10:47:16.899Z,94588.00
2023-05-22T10:48:17.002Z,94582.00
2023-05-22T10:49:16.992Z,94578.00
2023-05-22T10:50:17.093Z,94578.00
2023-05-22T10:51:17.123Z,94572.00
2023-05-22T10:52:18.973Z,94576.00
2023-05-22T10:53:18.399Z,94572.00
2023-05-22T10:54:21.266Z,94572.00
2023-05-22T10:55:18.009Z,94570.00
2023-05-22T10:56:17.346Z,94566.00
2023-05-22T10:57:19.491Z,94568.00
2023-05-22T10:58:18.059Z,94568.00
2023-05-22T11:02:17.121Z,94562.00
2023-05-22T11:03:17.755Z,94558.00
2023-05-22T11:04:12.521Z,94558.00
2023-05-22T11:05:10.960Z,94556.00
2023-05-22T11:06:10.978Z,94554.00
2023-05-22T11:07:12.500Z,94556.00
2023-05-22T11:08:16.028Z,94550.00
2023-05-22T11:09:11.866Z,94550.00
2023-05-22T11:10:10.875Z,94552.00
2023-05-22T11:12:32.598Z,94552.00
2023-05-22T11:13:29.676Z,94550.00
2023-05-22T11:14:39.478Z,94548.00
2023-05-22T11:15:30.531Z,94546.00
2023-05-22T11:21:57.283Z,94538.00
2023-05-22T11:22:59.569Z,94534.00
2023-05-22T11:23:56.294Z,94538.00
2023-05-22T11:24:56.512Z,94536.00
2023-05-22T11:25:56.320Z,94533.00
2023-05-22T11:26:56.230Z,94529.00
2023-05-22T11:27:56.442Z,94531.00
2023-05-22T11:28:56.361Z,94533.00
2023-05-22T11:29:57.268Z,94533.00
2023-05-22T11:30:56.669Z,94533.00
2023-05-22T11:31:56.386Z,94534.00
2023-05-22T11:32:56.322Z,94533.00
2023-05-22T11:33:56.293Z,94536.00
2023-05-22T11:34:56.268Z,94534.00
2023-05-22T11:35:56.255Z,94534.00
2023-05-22T11:47:39.939Z,94517.00
2023-05-22T11:48:33.621Z,94517.00
2023-05-22T11:49:33.644Z,94509.00
2023-05-22T11:50:42.391Z,94511.00
2023-05-22T11:51:34.614Z,94511.00
2023-05-22T11:53:54.303Z,94507.00
2023-05-22T11:54:53.793Z,94509.00
2023-05-22T11:55:52.626Z,94501.00
2023-05-22T11:56:52.663Z,94503.00
2023-05-22T11:57:52.489Z,94503.00
2023-05-22T11:58:52.528Z,94505.00
2023-05-22T11:59:54.068Z,94501.00
2023-05-22T12:00:52.613Z,94499.00
2023-05-22T12:01:52.569Z,94501.00
2023-05-22T12:02:52.688Z,94501.00
2023-05-22T12:03:57.923Z,94499.00
2023-05-22T12:04:53.496Z,94501.00
2023-05-22T12:05:52.550Z,94497.00
2023-05-22T12:06:53.786Z,94493.00
2023-05-22T12:07:52.768Z,94491.00
2023-05-22T12:08:53.450Z,94493.00
2023-05-22T12:09:55.839Z,94497.00
2023-05-22T12:10:52.557Z,94495.00
2023-05-22T12:11:59.914Z,94491.00
2023-05-22T12:12:53.578Z,94487.00
2023-05-22T12:15:41.897Z,94483.00
2023-05-22T12:16:43.918Z,94483.00
2023-05-22T12:17:58.897Z,94485.00
2023-05-22T12:18:43.041Z,94483.00
2023-05-22T12:19:45.378Z,94481.00
2023-05-22T12:20:42.680Z,94483.00
2023-05-22T12:26:44.162Z,94470.00
2023-05-22T12:27:43.631Z,94472.00
2023-05-22T12:28:47.220Z,94472.00
2023-05-22T12:29:43.629Z,94472.00
2023-05-22T12:30:46.843Z,94470.00
2023-05-22T12:31:44.537Z,94468.00
2023-05-22T12:32:45.562Z,94466.00
2023-05-22T12:33:44.167Z,94466.00
2023-05-22T12:34:57.432Z,94470.00
2023-05-22T12:35:56.253Z,94472.00
2023-05-22T12:36:44.823Z,94468.00
2023-05-22T12:37:55.272Z,94464.00
2023-05-22T12:38:44.813Z,94464.00
2023-05-22T12:39:43.835Z,94464.00
2023-05-22T12:40:43.837Z,94464.00
2023-05-22T12:41:43.754Z,94460.00
2023-05-22T12:42:43.872Z,94464.00
2023-05-22T12:43:43.757Z,94462.00
2023-05-22T12:44:43.877Z,94458.00
2023-05-22T12:45:43.776Z,94464.00
2023-05-22T12:46:43.801Z,94462.00
2023-05-22T12:47:43.842Z,94460.00
2023-05-22T12:48:43.696Z,94460.00
2023-05-22T12:49:44.310Z,94464.00
2023-05-22T12:50:43.809Z,94462.00
2023-05-22T12:51:43.890Z,94460.00
2023-05-22T12:52:43.852Z,94460.00
2023-05-22T12:53:46.230Z,94460.00
2023-05-22T12:54:44.143Z,94462.00
2023-05-22T12:55:44.328Z,94460.00
2023-05-22T12:56:43.857Z,94462.00
2023-05-22T13:00:25.113Z,94464.00
2023-05-22T13:01:11.737Z,94462.00
2023-05-22T13:02:09.308Z,94462.00
2023-05-22T13:03:10.673Z,94458.00
2023-05-22T13:05:52.175Z,94458.00
2023-05-22T13:07:15.370Z,94458.00
2023-05-22T13:07:51.904Z,94456.00
2023-05-22T13:12:23.229Z,94452.00
2023-05-22T13:13:22.858Z,94444.00
2023-05-22T13:15:50.117Z,94446.00
2023-05-22T13:16:43.199Z,94438.00
2023-05-22T13:17:42.339Z,94440.00
2023-05-22T13:18:44.645Z,94440.00
2023-05-22T13:19:43.192Z,94434.00
2023-05-22T13:20:41.348Z,94434.00
2023-05-22T13:21:41.269Z,94436.00
2023-05-22T13:22:41.141Z,94432.00
2023-05-22T13:23:41.129Z,94434.00
2023-05-22T13:24:49.562Z,94432.00
2023-05-22T13:27:56.885Z,94432.00
2023-05-22T13:28:55.930Z,94432.00
2023-05-22T13:29:56.150Z,94431.00
2023-05-22T13:31:01.334Z,94431.00
2023-05-22T13:31:55.845Z,94432.00
2023-05-22T13:32:57.452Z,94427.00
2023-05-22T13:33:56.091Z,94429.00
2023-05-22T13:34:56.067Z,94429.00
2023-05-22T13:35:58.815Z,94427.00
2023-05-22T13:36:57.418Z,94423.00
2023-05-22T13:37:55.894Z,94425.00
2023-05-22T13:38:55.919Z,94427.00
2023-05-22T13:39:55.804Z,94423.00
2023-05-22T13:40:56.439Z,94427.00
2023-05-22T13:42:13.317Z,94425.00
2023-05-22T13:43:04.332Z,94427.00
2023-05-22T13:43:58.395Z,94425.00
2023-05-22T13:44:55.963Z,94425.00
2023-05-22T13:45:55.841Z,94429.00
2023-05-22T13:46:56.066Z,94423.00
2023-05-22T13:47:55.876Z,94425.00
2023-05-22T13:48:56.000Z,94425.00
2023-05-22T13:49:57.963Z,94427.00
2023-05-22T13:50:55.844Z,94425.00
2023-05-22T13:51:56.149Z,94431.00
2023-05-22T13:52:56.376Z,94431.00
2023-05-22T13:53:55.984Z,94431.00
2023-05-22T13:55:01.489Z,94431.00
2023-05-22T13:55:57.117Z,94432.00
2023-05-22T13:56:56.039Z,94429.00
2023-05-22T13:57:56.113Z,94438.00
2023-05-22T13:58:57.365Z,94432.00
2023-05-22T13:59:56.016Z,94431.00
2023-05-22T14:01:02.433Z,94431.00
2023-05-22T14:01:57.011Z,94431.00
2023-05-22T14:02:56.050Z,94434.00
2023-05-22T14:03:55.863Z,94434.00
2023-05-22T14:04:56.414Z,94432.00
2023-05-22T14:05:55.873Z,94431.00
2023-05-22T14:06:55.958Z,94432.00
2023-05-22T14:07:56.010Z,94431.00
2023-05-22T14:08:56.059Z,94431.00
2023-05-22T14:09:55.998Z,94427.00
2023-05-22T14:10:56.035Z,94427.00
2023-05-22T14:11:56.019Z,94423.00
2023-05-22T14:12:56.113Z,94425.00
2023-05-22T14:13:56.926Z,94425.00
2023-05-22T14:14:56.039Z,94425.00
2023-05-22T14:15:56.071Z,94423.00
2023-05-22T14:16:56.202Z,94423.00
2023-05-22T14:17:57.406Z,94421.00
2023-05-22T14:18:56.369Z,94421.00
2023-05-22T14:19:56.371Z,94421.00
2023-05-22T14:20:56.300Z,94419.00
2023-05-22T14:21:56.262Z,94417.00
2023-05-22T14:22:57.728Z,94419.00
2023-05-22T14:23:56.385Z,94417.00
2023-05-22T14:25:09.443Z,94417.00
2023-05-22T14:25:57.433Z,94417.00
2023-05-22T14:26:56.409Z,94417.00
2023-05-22T14:27:56.422Z,94419.00
2023-05-22T14:28:56.430Z,94417.00
2023-05-22T14:29:56.434Z,94417.00
2023-05-22T14:30:56.488Z,94421.00
2023-05-22T14:31:56.406Z,94419.00
2023-05-22T14:32:56.568Z,94421.00
2023-05-22T14:33:56.381Z,94419.00
2023-05-22T14:34:56.381Z,94419.00
2023-05-22T14:36:07.008Z,94419.00
2023-05-22T14:36:56.426Z,94417.00
2023-05-22T14:37:56.324Z,94419.00
2023-05-22T14:38:56.379Z,94423.00
2023-05-22T14:39:56.337Z,94421.00
2023-05-22T14:40:56.328Z,94419.00
2023-05-22T14:41:56.333Z,94421.00
2023-05-22T14:42:56.289Z,94419.00
2023-05-22T14:43:56.342Z,94417.00
2023-05-22T14:44:56.317Z,94423.00
2023-05-22T14:45:56.421Z,94417.00
2023-05-22T14:46:56.282Z,94419.00
2023-05-22T14:47:56.352Z,94419.00
2023-05-22T14:48:56.302Z,94423.00
2023-05-22T14:50:06.210Z,94419.00
2023-05-22T14:50:57.234Z,94419.00
2023-05-22T14:51:56.320Z,94419.00
2023-05-22T14:52:56.231Z,94421.00
2023-05-22T14:53:56.210Z,94419.00
2023-05-22T14:54:56.312Z,94421.00
2023-05-22T14:55:56.935Z,94421.00
2023-05-22T14:56:56.337Z,94421.00
2023-05-22T14:57:56.223Z,94419.00
2023-05-22T14:58:56.205Z,94417.00
2023-05-22T14:59:56.174Z,94419.00
2023-05-22T15:00:56.225Z,94421.00
2023-05-22T15:01:56.312Z,94421.00
2023-05-22T15:02:56.222Z,94421.00
2023-05-22T15:03:56.181Z,94421.00
2023-05-22T15:04:56.228Z,94423.00
2023-05-22T15:05:56.297Z,94419.00
2023-05-22T15:06:56.405Z,94417.00
2023-05-22T15:07:56.414Z,94421.00
2023-05-22T15:08:57.966Z,94421.00
2023-05-22T15:09:56.447Z,94421.00
2023-05-22T15:10:56.520Z,94421.00
2023-05-22T15:11:56.559Z,94419.00
2023-05-22T15:12:56.646Z,94423.00
2023-05-22T15:13:56.651Z,94417.00
2023-05-22T15:14:56.678Z,94421.00
2023-05-22T15:15:57.913Z,94419.00
2023-05-22T15:16:56.820Z,94417.00
2023-05-22T15:17:56.858Z,94419.00
2023-05-22T15:18:56.941Z,94417.00
2023-05-22T15:19:56.889Z,94419.00
2023-05-22T15:20:57.507Z,94421.00
2023-05-22T15:22:00.728Z,94423.00
2023-05-22T15:22:57.864Z,94425.00